Time;durP1;ratioP1;P1;durP2;ratioP2;P2;SDS_P1;SDS_P2;PMS_P1;PMS_P2;Temp;Humidity;BMP_temperature;BMP_pressure;BME280_temperature;BME280_humidity;BME280_pressure;Samples;Min_cycle;Max_cycle;Signal;HPM_P1;HPM_P2
2021/11/20 00:00:42;;;;;;;1.00;0.90;;;11.20;92.20;;;;;;4911546;29;20403;-76
2021/11/20 00:03:09;;;;;;;1.52;1.00;;;11.30;92.20;;;;;;4910890;29;20049;-77
2021/11/20 00:05:42;;;;;;;1.45;0.85;;;11.30;92.20;;;;;;4896659;29;20041;-77
2021/11/20 00:08:09;;;;;;;0.75;0.70;;;11.20;92.20;;;;;;4912850;29;20052;-77
2021/11/20 00:10:37;;;;;;;1.08;0.80;;;11.20;92.20;;;;;;4910920;29;20074;-78
2021/11/20 00:13:08;;;;;;;1.40;0.90;;;11.20;92.20;;;;;;4911824;29;20051;-77
2021/11/20 00:15:37;;;;;;;1.60;1.00;;;11.20;92.20;;;;;;4913016;29;20080;-77
2021/11/20 00:18:03;;;;;;;1.30;0.90;;;11.20;92.20;;;;;;4893364;29;20045;-77
2021/11/20 00:20:31;;;;;;;1.08;0.80;;;11.20;92.20;;;;;;4897142;29;20047;-77
2021/11/20 00:22:58;;;;;;;1.02;0.90;;;11.20;92.20;;;;;;4910927;29;20048;-76
2021/11/20 00:25:30;;;;;;;1.08;0.80;;;11.20;92.30;;;;;;4911744;29;20044;-77
2021/11/20 00:27:58;;;;;;;0.90;0.70;;;11.20;92.30;;;;;;4911778;29;20052;-77
2021/11/20 00:30:29;;;;;;;1.45;1.10;;;11.20;92.30;;;;;;4912356;29;20041;-77
2021/11/20 00:33:01;;;;;;;2.30;0.85;;;11.20;92.30;;;;;;4892211;29;20073;-77
2021/11/20 00:35:32;;;;;;;1.33;0.85;;;11.20;92.30;;;;;;4906288;29;21339;-77
2021/11/20 00:37:59;;;;;;;1.83;1.10;;;11.20;92.20;;;;;;4904012;29;20033;-77
2021/11/20 00:40:32;;;;;;;1.20;1.10;;;11.20;92.20;;;;;;4906107;29;20037;-77
2021/11/20 00:42:58;;;;;;;1.42;1.00;;;11.20;92.30;;;;;;4906486;29;20053;-77
2021/11/20 00:45:23;;;;;;;1.85;1.33;;;11.20;92.20;;;;;;4906814;29;20361;-77
2021/11/20 00:47:49;;;;;;;2.25;1.30;;;11.20;92.50;;;;;;4906931;29;20048;-77
2021/11/20 00:50:18;;;;;;;1.70;1.20;;;11.20;92.20;;;;;;4904861;29;20043;-77
2021/11/20 00:52:44;;;;;;;2.15;1.30;;;11.20;92.20;;;;;;4907649;29;20048;-77
2021/11/20 00:55:13;;;;;;;2.65;1.60;;;11.20;92.20;;;;;;4909467;29;20040;-76
2021/11/20 00:57:41;;;;;;;2.47;1.50;;;11.20;92.20;;;;;;4914943;29;20037;-76
2021/11/20 01:00:10;;;;;;;1.85;1.30;;;11.10;92.20;;;;;;4917132;29;20041;-76
2021/11/20 01:02:36;;;;;;;1.90;1.10;;;11.10;92.20;;;;;;4916422;29;20176;-76
2021/11/20 01:05:04;;;;;;;2.83;1.67;;;11.10;92.20;;;;;;4917109;29;20036;-76
2021/11/20 01:07:30;;;;;;;1.58;1.10;;;11.10;92.20;;;;;;4916875;29;20037;-76
2021/11/20 01:09:56;;;;;;;2.50;1.35;;;11.10;92.20;;;;;;4898466;29;20061;-76
2021/11/20 01:12:26;;;;;;;2.13;1.40;;;11.10;92.20;;;;;;4917486;29;20060;-76
2021/11/20 01:14:53;;;;;;;1.88;1.33;;;11.10;92.20;;;;;;4917732;29;20048;-76
2021/11/20 01:17:21;;;;;;;2.45;1.70;;;11.10;92.20;;;;;;4917330;29;20045;-77
2021/11/20 01:19:48;;;;;;;2.03;1.48;;;11.10;92.20;;;;;;4916702;29;20084;-77
2021/11/20 01:22:17;;;;;;;2.08;1.40;;;11.10;92.10;;;;;;4910412;29;20044;-77
2021/11/20 01:24:43;;;;;;;2.15;1.50;;;11.10;92.10;;;;;;4897335;29;20053;-77
2021/11/20 01:27:09;;;;;;;2.30;1.33;;;11.10;92.20;;;;;;4915877;29;20108;-76
2021/11/20 01:29:36;;;;;;;2.15;1.48;;;11.10;92.20;;;;;;4915841;29;20033;-77
2021/11/20 01:32:02;;;;;;;2.47;1.58;;;11.10;92.20;;;;;;4914329;29;20040;-77
2021/11/20 01:34:28;;;;;;;2.03;1.50;;;11.10;92.20;;;;;;4917787;29;20045;-77
2021/11/20 01:36:57;;;;;;;2.22;1.50;;;11.10;92.20;;;;;;4917219;29;20037;-77
2021/11/20 01:39:28;;;;;;;1.98;1.38;;;11.10;92.20;;;;;;4914324;29;20041;-77
2021/11/20 01:41:59;;;;;;;2.30;1.38;;;11.10;92.20;;;;;;4917163;29;20041;-76
2021/11/20 01:44:30;;;;;;;1.90;1.30;;;11.00;92.10;;;;;;4917968;29;20048;-77
2021/11/20 01:47:00;;;;;;;2.53;1.40;;;11.10;92.20;;;;;;4898439;29;20040;-76
2021/11/20 01:49:30;;;;;;;2.58;1.67;;;11.10;92.20;;;;;;4914546;29;20021;-76
2021/11/20 01:52:14;;;;;;;2.30;1.48;;;11.10;92.20;;;;;;4915478;29;20067;-76
2021/11/20 01:54:58;;;;;;;1.98;1.25;;;11.10;92.10;;;;;;4915679;29;20104;-76
2021/11/20 01:57:38;;;;;;;1.98;1.25;;;11.10;92.10;;;;;;4916875;29;20110;-76
2021/11/20 02:00:16;;;;;;;2.25;1.20;;;11.10;92.10;;;;;;4913665;29;20052;-76
2021/11/20 02:03:06;;;;;;;2.38;1.48;;;11.10;92.10;;;;;;4916428;29;20063;-76
2021/11/20 02:05:56;;;;;;;2.13;1.38;;;11.00;92.10;;;;;;4915955;29;20415;-76
2021/11/20 02:08:42;;;;;;;1.50;1.10;;;11.10;92.20;;;;;;4915626;29;20039;-76
2021/11/20 02:11:20;;;;;;;1.85;1.10;;;11.10;92.20;;;;;;4917033;29;20068;-76
2021/11/20 02:13:46;;;;;;;1.73;1.10;;;11.00;92.10;;;;;;4913658;29;20041;-76
2021/11/20 02:16:18;;;;;;;2.35;1.60;;;11.10;92.20;;;;;;4916986;29;20056;-76
2021/11/20 02:18:57;;;;;;;2.83;1.52;;;11.00;92.10;;;;;;4916277;29;20055;-77
2021/11/20 02:21:33;;;;;;;1.85;1.27;;;11.00;92.10;;;;;;4908240;29;20040;-77
2021/11/20 02:23:58;;;;;;;1.85;1.20;;;11.00;92.10;;;;;;4906925;29;20056;-76
2021/11/20 02:26:24;;;;;;;1.48;1.17;;;11.00;92.10;;;;;;4888729;29;20044;-78
2021/11/20 02:28:51;;;;;;;1.50;1.05;;;10.90;92.10;;;;;;4888088;29;20024;-77
2021/11/20 02:31:18;;;;;;;1.77;1.27;;;11.10;92.20;;;;;;4905444;29;20409;-77
2021/11/20 02:33:47;;;;;;;1.63;1.10;;;11.00;92.20;;;;;;4907106;29;20407;-77
2021/11/20 02:36:17;;;;;;;2.13;1.20;;;11.00;92.20;;;;;;4904872;29;20139;-78
2021/11/20 02:38:59;;;;;;;2.55;1.48;;;11.00;92.20;;;;;;4903262;29;20071;-76
2021/11/20 02:41:27;;;;;;;2.47;1.60;;;11.00;92.20;;;;;;4885110;29;20049;-78
2021/11/20 02:43:57;;;;;;;2.95;1.85;;;10.90;92.20;;;;;;4903988;29;20135;-77
2021/11/20 02:46:25;;;;;;;2.30;1.55;;;11.00;92.20;;;;;;4884995;29;20597;-77
2021/11/20 02:48:52;;;;;;;3.20;1.90;;;11.00;92.20;;;;;;4900111;29;20126;-77
2021/11/20 02:51:24;;;;;;;2.63;1.60;;;10.90;92.10;;;;;;4902903;29;20419;-77
2021/11/20 02:53:56;;;;;;;2.20;1.50;;;11.00;92.20;;;;;;4885871;29;20056;-77
2021/11/20 02:56:25;;;;;;;2.60;1.73;;;10.90;92.10;;;;;;4900402;29;20468;-77
2021/11/20 02:58:52;;;;;;;3.08;1.60;;;10.90;92.10;;;;;;4902169;29;20037;-77
2021/11/20 03:01:23;;;;;;;3.20;1.90;;;10.90;92.10;;;;;;4899924;29;20057;-77
2021/11/20 03:03:49;;;;;;;2.92;1.90;;;11.00;92.10;;;;;;4902260;29;20560;-77
2021/11/20 03:06:15;;;;;;;3.75;1.98;;;10.90;92.10;;;;;;4888140;29;20061;-77
2021/11/20 03:08:40;;;;;;;4.45;2.10;;;10.90;92.00;;;;;;4906204;29;20037;-77
2021/11/20 03:11:08;;;;;;;3.00;1.80;;;11.00;92.00;;;;;;4910336;29;20076;-77
2021/11/20 03:13:34;;;;;;;2.38;1.60;;;10.90;92.00;;;;;;4888643;29;20053;-77
2021/11/20 03:16:00;;;;;;;2.72;1.80;;;11.00;92.00;;;;;;4901662;29;20112;-77
2021/11/20 03:18:26;;;;;;;2.85;1.85;;;10.90;92.00;;;;;;4904480;29;20045;-77
2021/11/20 03:20:52;;;;;;;2.97;1.98;;;10.90;92.00;;;;;;4903327;29;20409;-77
2021/11/20 03:23:22;;;;;;;3.50;2.10;;;11.00;91.90;;;;;;4905637;29;20045;-77
2021/11/20 03:25:48;;;;;;;3.33;1.92;;;10.90;91.90;;;;;;4907408;29;20039;-77
2021/11/20 03:28:14;;;;;;;3.72;2.08;;;10.90;91.90;;;;;;4886417;29;20033;-77
2021/11/20 03:30:41;;;;;;;3.97;2.30;;;11.00;91.90;;;;;;4903018;29;20033;-77
2021/11/20 03:33:07;;;;;;;3.67;1.90;;;10.90;91.90;;;;;;4904563;29;20378;-77
2021/11/20 03:35:34;;;;;;;3.25;2.00;;;10.90;91.90;;;;;;4885870;29;20044;-77
2021/11/20 03:37:59;;;;;;;3.53;2.00;;;11.00;91.90;;;;;;4906348;29;20071;-77
2021/11/20 03:40:27;;;;;;;3.75;2.22;;;10.90;91.90;;;;;;4900998;29;20494;-77
2021/11/20 03:42:53;;;;;;;2.92;1.85;;;10.90;91.90;;;;;;4901930;29;20053;-77
2021/11/20 03:45:22;;;;;;;3.45;2.00;;;10.90;91.90;;;;;;4886142;29;20058;-77
2021/11/20 03:47:48;;;;;;;4.95;2.33;;;10.90;91.90;;;;;;4903224;29;20069;-77
2021/11/20 03:50:15;;;;;;;3.72;2.17;;;10.90;91.90;;;;;;4905155;29;20616;-77
2021/11/20 03:52:42;;;;;;;3.35;2.00;;;10.80;91.90;;;;;;4888330;29;20132;-77
2021/11/20 03:55:12;;;;;;;3.53;1.90;;;10.80;91.90;;;;;;4906675;29;20079;-77
2021/11/20 03:57:37;;;;;;;4.35;2.30;;;10.90;91.90;;;;;;4906246;29;20487;-77
2021/11/20 04:00:07;;;;;;;3.40;2.22;;;10.90;91.90;;;;;;4906388;29;20045;-76
2021/11/20 04:02:33;;;;;;;3.08;1.90;;;10.90;91.90;;;;;;4909168;29;20073;-78
2021/11/20 04:04:58;;;;;;;3.58;2.13;;;11.00;91.90;;;;;;4899380;29;20469;-77
2021/11/20 04:07:24;;;;;;;4.20;2.30;;;10.80;91.90;;;;;;4918122;29;20021;-76
2021/11/20 04:09:50;;;;;;;3.67;2.08;;;10.80;91.90;;;;;;4918398;29;20499;-76
2021/11/20 04:12:15;;;;;;;4.07;2.28;;;10.90;91.90;;;;;;4900973;29;20503;-76
2021/11/20 04:14:41;;;;;;;4.30;2.60;;;10.80;91.90;;;;;;4917134;29;20051;-76
2021/11/20 04:17:07;;;;;;;4.15;2.28;;;10.80;91.90;;;;;;4899470;29;20045;-76
2021/11/20 04:19:33;;;;;;;3.40;2.05;;;10.80;91.90;;;;;;4916346;29;20044;-76
2021/11/20 04:21:59;;;;;;;2.97;1.80;;;10.90;91.90;;;;;;4918280;29;20096;-76
2021/11/20 04:24:25;;;;;;;4.07;2.40;;;10.90;91.90;;;;;;4916773;29;20057;-76
2021/11/20 04:26:51;;;;;;;2.97;1.83;;;10.80;91.90;;;;;;4919248;29;20116;-76
2021/11/20 04:29:18;;;;;;;4.03;2.30;;;10.80;91.90;;;;;;4918180;29;20032;-76
2021/11/20 04:31:44;;;;;;;3.78;1.95;;;10.80;91.90;;;;;;4916024;29;20032;-76
2021/11/20 04:34:10;;;;;;;3.53;2.03;;;10.80;91.90;;;;;;4918562;29;20088;-76
2021/11/20 04:36:36;;;;;;;3.72;2.17;;;10.80;91.90;;;;;;4918338;29;20037;-76
2021/11/20 04:39:04;;;;;;;4.80;2.28;;;10.70;91.80;;;;;;4917675;29;20064;-76
2021/11/20 04:41:30;;;;;;;3.80;2.20;;;10.80;91.90;;;;;;4917752;29;20044;-76
2021/11/20 04:43:55;;;;;;;4.22;2.45;;;10.90;91.90;;;;;;4918303;29;20041;-76
2021/11/20 04:46:24;;;;;;;4.00;2.30;;;10.80;91.90;;;;;;4916499;29;20049;-76
2021/11/20 04:48:51;;;;;;;4.47;2.40;;;10.70;91.80;;;;;;4901054;29;20052;-76
2021/11/20 04:51:17;;;;;;;4.32;2.42;;;10.70;91.80;;;;;;4917508;29;20066;-76
2021/11/20 04:53:45;;;;;;;5.35;2.83;;;10.80;91.90;;;;;;4918581;29;20028;-76
2021/11/20 04:56:15;;;;;;;4.45;2.30;;;10.80;91.90;;;;;;4915275;29;20024;-76
2021/11/20 04:58:41;;;;;;;4.32;2.40;;;10.60;91.80;;;;;;4919255;29;20040;-76
2021/11/20 05:01:08;;;;;;;4.13;2.50;;;10.70;91.80;;;;;;4918323;29;20032;-76
2021/11/20 05:03:34;;;;;;;4.97;2.58;;;10.80;91.90;;;;;;4917830;29;20048;-76
2021/11/20 05:06:00;;;;;;;3.90;2.20;;;10.70;91.80;;;;;;4911368;29;20040;-77
2021/11/20 05:08:26;;;;;;;3.35;2.10;;;10.70;91.80;;;;;;4894927;29;20066;-76
2021/11/20 05:10:53;;;;;;;4.75;2.67;;;10.70;91.80;;;;;;4919019;29;20045;-76
2021/11/20 05:13:21;;;;;;;3.67;2.20;;;10.80;92.10;;;;;;4916779;29;20080;-76
2021/11/20 05:15:49;;;;;;;4.80;2.63;;;10.70;91.80;;;;;;4918094;29;20025;-75
2021/11/20 05:18:15;;;;;;;4.95;2.53;;;10.90;91.80;;;;;;4915986;29;20025;-75
2021/11/20 05:20:41;;;;;;;4.90;2.60;;;10.70;91.80;;;;;;4915709;29;20033;-75
2021/11/20 05:23:08;;;;;;;4.00;2.30;;;10.70;91.80;;;;;;4897432;29;20053;-75
2021/11/20 05:25:33;;;;;;;5.03;2.63;;;10.70;91.80;;;;;;4916018;29;20033;-78
2021/11/20 05:27:59;;;;;;;4.38;2.55;;;10.70;91.80;;;;;;4911965;29;20124;-78
2021/11/20 05:30:32;;;;;;;4.18;2.50;;;10.70;91.80;;;;;;4913297;29;20099;-75
2021/11/20 05:33:00;;;;;;;4.65;2.50;;;10.70;91.80;;;;;;4896406;29;20065;-75
2021/11/20 05:35:29;;;;;;;5.10;2.75;;;10.70;91.80;;;;;;4899748;29;20453;-76
2021/11/20 05:37:55;;;;;;;4.93;2.72;;;10.70;91.80;;;;;;4898277;29;20048;-75
2021/11/20 05:40:21;;;;;;;5.60;2.95;;;10.90;91.80;;;;;;4900422;29;20033;-79
2021/11/20 05:42:51;;;;;;;5.85;2.95;;;10.70;91.80;;;;;;4899029;29;20041;-75
2021/11/20 05:45:21;;;;;;;5.80;2.90;;;10.70;91.70;;;;;;4899134;29;20036;-75
2021/11/20 05:47:48;;;;;;;6.95;3.60;;;10.70;91.70;;;;;;4885287;29;20037;-78
2021/11/20 05:50:22;;;;;;;6.70;3.10;;;10.70;91.70;;;;;;4889241;29;20058;-77
2021/11/20 05:52:50;;;;;;;6.65;3.20;;;10.70;91.70;;;;;;4903520;29;20555;-77
2021/11/20 05:55:18;;;;;;;5.53;3.08;;;10.60;91.70;;;;;;4903655;29;20088;-78
2021/11/20 05:57:44;;;;;;;4.53;2.20;;;10.70;91.70;;;;;;4902855;29;20073;-77
2021/11/20 06:00:14;;;;;;;6.28;3.10;;;10.60;91.70;;;;;;4891573;29;20040;-78
2021/11/20 06:02:40;;;;;;;5.80;2.78;;;10.70;91.70;;;;;;4889749;29;20469;-77
2021/11/20 06:05:07;;;;;;;5.60;3.00;;;10.70;91.70;;;;;;4899965;29;20061;-78
2021/11/20 06:07:33;;;;;;;6.13;3.15;;;10.60;91.70;;;;;;4913207;29;20122;-77
2021/11/20 06:09:59;;;;;;;6.07;2.75;;;10.70;91.70;;;;;;4901589;29;20069;-77
2021/11/20 06:12:25;;;;;;;5.25;2.88;;;10.70;91.70;;;;;;4900454;29;20044;-77
2021/11/20 06:14:51;;;;;;;7.63;3.70;;;10.60;91.70;;;;;;4899256;29;20056;-77
2021/11/20 06:17:17;;;;;;;5.70;3.10;;;10.60;91.70;;;;;;4885006;29;20041;-77
2021/11/20 06:19:43;;;;;;;4.78;2.50;;;10.60;91.70;;;;;;4878143;29;20857;-77
2021/11/20 06:22:09;;;;;;;5.18;2.70;;;10.60;91.60;;;;;;4902070;29;20037;-77
2021/11/20 06:24:35;;;;;;;6.10;3.05;;;10.70;91.70;;;;;;4899768;29;20039;-77
2021/11/20 06:27:02;;;;;;;5.28;2.80;;;10.70;91.70;;;;;;4901040;29;20068;-77
2021/11/20 06:29:28;;;;;;;6.35;2.90;;;10.60;91.60;;;;;;4893229;29;20096;-77
2021/11/20 06:31:54;;;;;;;5.70;2.70;;;10.70;91.70;;;;;;4894952;29;20037;-77
2021/11/20 06:34:20;;;;;;;6.57;3.08;;;10.60;91.60;;;;;;4910688;29;20033;-77
2021/11/20 06:36:46;;;;;;;6.13;3.40;;;10.70;91.60;;;;;;4893739;29;20045;-78
2021/11/20 06:39:13;;;;;;;6.85;3.25;;;10.60;91.60;;;;;;4895512;29;20026;-77
2021/11/20 06:41:39;;;;;;;5.50;2.78;;;10.60;91.60;;;;;;4892240;29;20412;-78
2021/11/20 06:44:05;;;;;;;9.02;3.17;;;10.60;91.60;;;;;;4893145;29;20053;-79
2021/11/20 06:46:32;;;;;;;5.78;2.95;;;10.60;91.50;;;;;;4909467;29;20088;-78
2021/11/20 06:48:58;;;;;;;5.72;2.80;;;10.70;91.50;;;;;;4896018;29;20017;-78
2021/11/20 06:51:24;;;;;;;6.60;3.15;;;10.60;91.50;;;;;;4893934;29;20046;-77
2021/11/20 06:53:49;;;;;;;5.43;2.85;;;10.70;91.50;;;;;;4913717;29;20195;-77
2021/11/20 06:56:27;;;;;;;5.75;2.58;;;10.60;91.50;;;;;;4913271;29;20108;-78
2021/11/20 06:59:06;;;;;;;5.88;3.03;;;10.60;91.50;;;;;;4895025;29;20048;-78
2021/11/20 07:01:33;;;;;;;6.18;3.00;;;10.60;91.50;;;;;;4912434;29;20052;-78
2021/11/20 07:04:03;;;;;;;7.18;3.60;;;10.60;91.50;;;;;;4913394;29;20041;-77
2021/11/20 07:06:34;;;;;;;6.55;3.15;;;10.60;91.40;;;;;;4894059;29;20041;-78
2021/11/20 07:09:00;;;;;;;7.22;3.35;;;10.60;91.40;;;;;;4894923;29;20029;-78
2021/11/20 07:11:26;;;;;;;5.47;2.65;;;10.60;91.40;;;;;;4908400;29;20064;-78
2021/11/20 07:13:53;;;;;;;6.30;3.03;;;10.60;91.40;;;;;;4914039;29;20044;-78
2021/11/20 07:16:21;;;;;;;5.50;3.03;;;10.60;91.40;;;;;;4912349;29;20068;-78
2021/11/20 07:18:46;;;;;;;6.00;2.90;;;10.50;91.30;;;;;;4911558;29;20043;-78
2021/11/20 07:21:13;;;;;;;6.40;3.05;;;10.60;91.60;;;;;;4909965;29;20044;-76
2021/11/20 07:23:39;;;;;;;5.97;3.05;;;10.60;91.30;;;;;;4906636;29;20045;-77
2021/11/20 07:26:07;;;;;;;5.28;2.78;;;10.60;91.40;;;;;;4896465;29;20541;-76
2021/11/20 07:28:33;;;;;;;5.57;2.80;;;10.60;91.30;;;;;;4890553;29;20085;-77
2021/11/20 07:30:59;;;;;;;5.32;2.85;;;10.60;91.30;;;;;;4874733;29;20124;-77
2021/11/20 07:33:26;;;;;;;5.95;3.20;;;10.60;91.30;;;;;;4875641;29;20041;-77
2021/11/20 07:35:55;;;;;;;5.13;2.42;;;10.60;91.30;;;;;;4877629;29;20052;-76
2021/11/20 07:38:25;;;;;;;6.15;3.05;;;10.60;91.30;;;;;;4875335;29;20049;-77
2021/11/20 07:40:51;;;;;;;6.57;3.30;;;10.60;91.30;;;;;;4875978;29;20167;-77
2021/11/20 07:43:17;;;;;;;6.25;3.33;;;10.60;91.30;;;;;;4876243;29;20500;-77
2021/11/20 07:45:44;;;;;;;5.60;3.03;;;10.60;91.30;;;;;;4874898;29;20115;-75
2021/11/20 07:48:13;;;;;;;7.03;3.28;;;10.60;91.20;;;;;;4874876;29;20330;-77
2021/11/20 07:50:40;;;;;;;5.05;2.80;;;10.60;91.20;;;;;;4876927;29;20049;-76
2021/11/20 07:53:06;;;;;;;7.03;3.35;;;10.60;91.20;;;;;;4878009;29;20045;-76
2021/11/20 07:55:33;;;;;;;5.93;3.35;;;10.60;91.20;;;;;;4878808;29;20526;-76
2021/11/20 07:57:58;;;;;;;5.93;3.33;;;10.60;91.20;;;;;;4879395;29;20053;-77
2021/11/20 08:00:26;;;;;;;7.05;3.63;;;10.60;91.20;;;;;;4878211;29;20148;-77
2021/11/20 08:02:52;;;;;;;7.55;4.10;;;10.50;91.20;;;;;;4893463;29;20101;-76
2021/11/20 08:05:18;;;;;;;7.68;4.28;;;10.60;91.20;;;;;;4896172;29;20045;-77
2021/11/20 08:07:44;;;;;;;7.85;4.00;;;10.60;91.20;;;;;;4898897;29;20550;-76
2021/11/20 08:10:15;;;;;;;6.93;3.80;;;10.60;91.10;;;;;;4899161;29;20087;-77
2021/11/20 08:12:41;;;;;;;7.88;4.03;;;10.60;91.10;;;;;;4897243;29;20047;-76
2021/11/20 08:15:08;;;;;;;7.10;4.13;;;10.60;91.10;;;;;;4897375;29;20061;-76
2021/11/20 08:17:34;;;;;;;7.95;4.43;;;10.70;91.20;;;;;;4898696;29;20475;-76
2021/11/20 08:20:00;;;;;;;8.18;4.32;;;10.60;91.10;;;;;;4895913;29;20040;-76
2021/11/20 08:22:26;;;;;;;8.73;4.75;;;10.60;91.10;;;;;;4898986;29;20037;-76
2021/11/20 08:24:52;;;;;;;8.93;4.78;;;10.60;91.10;;;;;;4898653;29;20132;-77
2021/11/20 08:27:18;;;;;;;8.18;5.00;;;10.60;91.10;;;;;;4898768;29;20116;-77
2021/11/20 08:29:43;;;;;;;9.00;4.70;;;10.60;91.00;;;;;;4881058;29;20124;-74
2021/11/20 08:32:10;;;;;;;9.15;5.05;;;10.60;91.00;;;;;;4898472;29;20029;-74
2021/11/20 08:34:38;;;;;;;8.60;4.97;;;10.70;91.10;;;;;;4895619;29;20037;-74
2021/11/20 08:37:05;;;;;;;8.23;4.45;;;10.60;91.00;;;;;;4895177;29;20049;-74
2021/11/20 08:39:31;;;;;;;7.57;4.38;;;10.60;91.00;;;;;;4898169;29;20036;-75
2021/11/20 08:41:58;;;;;;;7.07;3.92;;;10.60;91.00;;;;;;4898041;29;20471;-75
2021/11/20 08:44:26;;;;;;;7.13;3.95;;;10.60;91.00;;;;;;4898216;29;20132;-75
2021/11/20 08:46:51;;;;;;;8.52;5.00;;;10.60;91.00;;;;;;4898323;29;20037;-75
2021/11/20 08:49:18;;;;;;;8.48;4.82;;;10.60;91.00;;;;;;4898280;29;20025;-76
2021/11/20 08:51:45;;;;;;;9.40;5.40;;;10.60;91.00;;;;;;4897678;29;20514;-75
2021/11/20 08:54:11;;;;;;;8.88;5.28;;;10.60;91.00;;;;;;4898198;29;20036;-75
2021/11/20 08:56:42;;;;;;;8.18;4.65;;;10.60;91.00;;;;;;4880367;29;20041;-75
2021/11/20 08:59:11;;;;;;;8.77;5.05;;;10.60;91.20;;;;;;4895760;29;20069;-76
2021/11/20 09:01:43;;;;;;;7.38;3.97;;;10.70;91.00;;;;;;4898019;29;20048;-76
2021/11/20 09:04:22;;;;;;;7.78;4.20;;;10.60;90.90;;;;;;4899391;29;20054;-76
2021/11/20 09:06:59;;;;;;;7.28;4.20;;;10.70;91.00;;;;;;4899180;29;20104;-76
2021/11/20 09:09:48;;;;;;;5.97;3.55;;;10.70;90.90;;;;;;4896488;29;20052;-76
2021/11/20 09:12:28;;;;;;;6.13;3.72;;;10.70;91.00;;;;;;4896855;29;20076;-76
2021/11/20 09:14:59;;;;;;;7.90;4.00;;;10.70;91.00;;;;;;4897085;29;20030;-77
2021/11/20 09:17:25;;;;;;;7.63;4.03;;;10.80;91.00;;;;;;4899593;29;20045;-77
2021/11/20 09:19:52;;;;;;;7.82;4.28;;;10.70;91.00;;;;;;4899043;29;20550;-77
2021/11/20 09:22:17;;;;;;;7.82;4.15;;;10.70;91.00;;;;;;4899745;29;20052;-76
2021/11/20 09:24:46;;;;;;;7.22;4.32;;;10.70;90.90;;;;;;4905159;29;20499;-76
2021/11/20 09:27:13;;;;;;;7.10;3.85;;;10.80;90.90;;;;;;4897404;29;20032;-77
2021/11/20 09:29:39;;;;;;;7.53;4.05;;;10.80;90.90;;;;;;4895710;29;20041;-77
2021/11/20 09:32:06;;;;;;;8.18;4.50;;;10.80;90.90;;;;;;4898227;29;20129;-76
2021/11/20 09:34:32;;;;;;;7.45;4.35;;;10.80;90.90;;;;;;4894676;29;20045;-77
2021/11/20 09:36:59;;;;;;;7.72;4.32;;;10.80;90.90;;;;;;4895451;29;20120;-77
2021/11/20 09:39:31;;;;;;;7.88;4.38;;;10.80;90.80;;;;;;4893984;29;20119;-76
2021/11/20 09:42:35;;;;;;;8.15;4.85;;;10.80;90.80;;;;;;4880097;29;20555;-77
2021/11/20 09:45:33;;;;;;;8.15;4.97;;;10.90;90.80;;;;;;4880349;29;20072;-77
2021/11/20 09:48:14;;;;;;;7.43;4.63;;;10.90;90.80;;;;;;4880986;29;20029;-77
2021/11/20 09:50:47;;;;;;;8.20;4.70;;;10.90;90.70;;;;;;4879676;29;20089;-77
2021/11/20 09:53:13;;;;;;;7.55;4.50;;;10.90;90.70;;;;;;4880166;29;20060;-77
2021/11/20 09:55:43;;;;;;;7.65;4.60;;;10.90;90.70;;;;;;4881450;29;20132;-76
2021/11/20 09:58:24;;;;;;;7.70;4.43;;;10.90;90.70;;;;;;4880123;29;20448;-77
2021/11/20 10:01:16;;;;;;;7.57;4.50;;;11.00;90.70;;;;;;4881794;29;20049;-77
2021/11/20 10:03:45;;;;;;;;;;;10.90;90.70;;;;;;4894283;29;20045;-78
2021/11/20 10:06:27;;;;;;;6.90;3.55;;;11.00;90.70;;;;;;4895176;29;19911;-78
2021/11/20 10:09:09;;;;;;;8.27;4.57;;;10.90;90.70;;;;;;4897624;29;20041;-77
2021/11/20 10:11:48;;;;;;;6.70;3.97;;;11.00;90.70;;;;;;4895665;29;21940;-75
2021/11/20 10:14:20;;;;;;;6.70;3.92;;;10.90;90.70;;;;;;4880500;29;20052;-79
2021/11/20 10:16:59;;;;;;;8.52;4.80;;;10.90;90.70;;;;;;4884191;29;20064;-81
2021/11/20 10:19:32;;;;;;;7.53;4.47;;;10.90;90.60;;;;;;4884374;29;20123;-81
2021/11/20 10:22:26;;;;;;;7.80;4.78;;;10.90;90.60;;;;;;4893845;29;20489;-78
2021/11/20 10:25:23;;;;;;;8.40;4.80;;;11.10;90.70;;;;;;4896309;29;20149;-81
2021/11/20 10:28:11;;;;;;;8.07;4.90;;;11.00;90.60;;;;;;4894191;29;20048;-81
2021/11/20 10:30:51;;;;;;;9.38;4.82;;;11.00;90.60;;;;;;4894009;29;20052;-77
2021/11/20 10:33:27;;;;;;;7.50;4.60;;;11.00;90.60;;;;;;4878235;29;20135;-79
2021/11/20 10:36:09;;;;;;;8.43;5.00;;;11.00;90.60;;;;;;4893968;29;20041;-79
2021/11/20 10:38:57;;;;;;;7.47;4.72;;;11.00;90.60;;;;;;4894476;29;20105;-77
2021/11/20 10:45:36;;;;;;;9.77;5.97;;;11.00;90.50;;;;;;4837744;29;20540;-77
2021/11/20 10:48:26;;;;;;;9.23;5.72;;;11.00;90.50;;;;;;4838510;29;20536;-78
2021/11/20 10:51:35;;;;;;;8.23;5.18;;;11.00;90.50;;;;;;4838473;29;20566;-81
2021/11/20 10:54:29;;;;;;;8.13;5.18;;;11.20;90.50;;;;;;4837876;29;20072;-78
2021/11/20 10:57:32;;;;;;;8.85;5.30;;;11.10;90.50;;;;;;4838506;29;20367;-79
2021/11/20 11:00:13;;;;;;;8.30;5.00;;;11.10;90.50;;;;;;4838210;29;20573;-78
2021/11/20 11:03:02;;;;;;;9.55;5.55;;;11.10;90.40;;;;;;4839612;29;20054;-79
2021/11/20 11:06:05;;;;;;;8.75;5.35;;;11.00;90.40;;;;;;4836656;29;20150;-81
2021/11/20 11:08:48;;;;;;;8.85;4.78;;;11.00;90.40;;;;;;4838241;29;20081;-80
2021/11/20 11:11:46;;;;;;;8.93;4.90;;;11.10;90.50;;;;;;4787882;29;20043;-81
2021/11/20 11:14:43;;;;;;;6.63;4.00;;;11.10;90.40;;;;;;4742081;30;20037;-80
2021/11/20 11:17:35;;;;;;;6.95;4.38;;;11.10;90.40;;;;;;4746607;30;20160;-80
2021/11/20 11:20:42;;;;;;;6.93;4.32;;;11.10;90.40;;;;;;4734813;30;20055;-83
2021/11/20 11:23:33;;;;;;;7.57;4.30;;;11.20;90.40;;;;;;4747761;30;20151;-76
2021/11/20 11:26:05;;;;;;;7.07;4.10;;;11.20;90.50;;;;;;4763744;30;20048;-76
2021/11/20 11:28:34;;;;;;;;;;;11.20;90.50;;;;;;4752098;30;20115;-76
2021/11/20 11:31:31;;;;;;;8.50;4.65;;;11.20;90.40;;;;;;4751194;30;19921;-76
2021/11/20 11:34:02;;;;;;;8.35;4.78;;;11.10;90.40;;;;;;4751398;30;20068;-76
2021/11/20 11:36:40;;;;;;;6.80;4.13;;;11.20;90.40;;;;;;4751045;30;20040;-76
2021/11/20 11:39:19;;;;;;;7.95;5.07;;;11.20;90.40;;;;;;4750868;30;20047;-76
2021/11/20 11:41:59;;;;;;;9.13;4.82;;;11.20;90.40;;;;;;4777388;29;20070;-77
2021/11/20 11:44:31;;;;;;;8.50;4.93;;;11.20;90.40;;;;;;4836333;29;20100;-76
2021/11/20 11:47:16;;;;;;;8.77;4.97;;;11.20;90.40;;;;;;4882244;29;20032;-76
2021/11/20 11:50:06;;;;;;;8.57;5.10;;;11.20;90.40;;;;;;4899080;29;20096;-76
2021/11/20 11:52:47;;;;;;;9.27;5.47;;;11.20;90.40;;;;;;4899057;29;20124;-75
2021/11/20 11:55:39;;;;;;;8.30;4.47;;;11.20;90.40;;;;;;4897248;29;20120;-76
2021/11/20 11:58:18;;;;;;;6.88;3.95;;;11.20;90.50;;;;;;4898577;29;20049;-76
2021/11/20 12:01:09;;;;;;;7.82;4.70;;;11.30;90.50;;;;;;4881794;29;20044;-76
2021/11/20 12:03:41;;;;;;;7.55;4.72;;;11.20;90.40;;;;;;4898983;29;20056;-77
2021/11/20 12:06:15;;;;;;;8.77;5.32;;;11.20;90.40;;;;;;4898946;29;20041;-76
2021/11/20 12:08:52;;;;;;;9.63;5.30;;;11.20;90.40;;;;;;4898356;29;20048;-76
2021/11/20 12:11:39;;;;;;;9.27;5.03;;;11.20;90.40;;;;;;4899082;29;20120;-76
2021/11/20 12:14:18;;;;;;;7.68;4.47;;;11.20;90.40;;;;;;4895946;29;20373;-76
2021/11/20 12:16:58;;;;;;;7.63;5.18;;;11.20;90.40;;;;;;4898420;29;20539;-76
2021/11/20 12:19:49;;;;;;;7.72;4.65;;;11.20;90.40;;;;;;4896513;29;20530;-76
2021/11/20 12:22:52;;;;;;;7.97;4.60;;;11.20;90.50;;;;;;4896304;29;20037;-76
2021/11/20 12:25:47;;;;;;;6.72;4.10;;;11.20;90.50;;;;;;4895774;29;20052;-75
2021/11/20 12:28:31;;;;;;;6.65;3.67;;;11.20;90.50;;;;;;4898330;29;20075;-76
2021/11/20 12:31:30;;;;;;;7.82;3.78;;;11.20;90.50;;;;;;4898008;29;20116;-76
2021/11/20 12:34:20;;;;;;;7.18;3.90;;;11.20;90.50;;;;;;4897813;29;20048;-76
2021/11/20 12:37:00;;;;;;;7.40;4.05;;;11.20;90.50;;;;;;4896843;29;20041;-76
2021/11/20 12:39:51;;;;;;;6.07;3.50;;;11.20;90.50;;;;;;4898092;29;20097;-76
2021/11/20 12:42:51;;;;;;;6.07;3.47;;;11.20;90.50;;;;;;4898300;29;20037;-76
2021/11/20 12:45:51;;;;;;;4.63;2.55;;;11.20;90.60;;;;;;4897463;29;20415;-75
2021/11/20 12:48:31;;;;;;;5.68;3.05;;;11.20;90.60;;;;;;4897586;29;20081;-76
2021/11/20 12:51:04;;;;;;;5.75;3.22;;;11.20;90.60;;;;;;4898172;29;20045;-76
2021/11/20 12:53:52;;;;;;;5.45;2.85;;;11.20;90.50;;;;;;4880690;29;20052;-76
2021/11/20 12:56:29;;;;;;;5.05;3.00;;;11.20;90.50;;;;;;4897641;29;20484;-76
2021/11/20 12:59:01;;;;;;;6.05;3.20;;;11.20;90.50;;;;;;4897477;29;20151;-76
2021/11/20 13:01:36;;;;;;;4.90;2.92;;;11.20;90.50;;;;;;4880145;29;20465;-76
2021/11/20 13:04:18;;;;;;;5.55;3.03;;;11.20;90.50;;;;;;4895759;29;20183;-76
2021/11/20 13:06:53;;;;;;;6.72;3.72;;;11.20;90.50;;;;;;4896486;29;20092;-84
2021/11/20 13:09:31;;;;;;;7.00;3.92;;;11.20;90.50;;;;;;4896223;29;20029;-81
2021/11/20 13:12:14;;;;;;;6.43;3.17;;;11.20;90.50;;;;;;4882223;29;20041;-79
2021/11/20 13:15:05;;;;;;;6.20;3.53;;;11.20;90.50;;;;;;4881015;29;20571;-76
2021/11/20 13:17:36;;;;;;;;;;;11.20;90.50;;;;;;4884905;29;20091;-78